Atlee, Canada
Current Conditions -  °F | °C
As of 9:00 AM on Friday 31 Oct 2014 (Local Time) from CYXH Reporting Station
Broken Clouds Broken Clouds  
Wind Chill: 50°   Ceiling: 27000
Heat Index: 50°   Visibility: 30mi
Dew Point: 34°   Wind: 15mph
Humidity: 54%   Direction: 180°S
Pressure: 29.73"   Gusts: 22mph
Location:  50.85°N, 110.95°W
Report Text: CYXH 311500Z 18013G19KT 30SM BKN270 10/01 A2973 RMK CI6 SLP080 DENSITY ALT 2500FT
Loading
Personal Weather Stations






























Interactive Weather Map
Tropical Storm Tracking
New forecast layout! Learn more

10-Day Weather Forecast

Advertisements
Track Severe Weather on mobile